sensor_id;sensor_type;location;lat;lon;timestamp;P1;durP1;ratioP1;P2;durP2;ratioP2
45326;SDS011;31062;49.678;24.560;2023-04-12T00:00:56;5.70;;;3.65;;
45326;SDS011;31062;49.678;24.560;2023-04-12T00:03:41;5.95;;;3.90;;
45326;SDS011;31062;49.678;24.560;2023-04-12T00:06:27;9.75;;;4.93;;
45326;SDS011;31062;49.678;24.560;2023-04-12T00:09:16;12.27;;;6.97;;
45326;SDS011;31062;49.678;24.560;2023-04-12T00:12:02;17.30;;;9.55;;
45326;SDS011;31062;49.678;24.560;2023-04-12T00:14:48;15.23;;;7.95;;
45326;SDS011;31062;49.678;24.560;2023-04-12T00:17:34;16.67;;;7.88;;
45326;SDS011;31062;49.678;24.560;2023-04-12T00:20:19;17.83;;;8.93;;
45326;SDS011;31062;49.678;24.560;2023-04-12T00:23:05;10.10;;;6.65;;
45326;SDS011;31062;49.678;24.560;2023-04-12T00:25:50;10.48;;;6.30;;
45326;SDS011;31062;49.678;24.560;2023-04-12T00:28:36;10.27;;;5.10;;
45326;SDS011;31062;49.678;24.560;2023-04-12T00:31:21;6.78;;;4.57;;
45326;SDS011;31062;49.678;24.560;2023-04-12T00:34:07;5.93;;;4.47;;
45326;SDS011;31062;49.678;24.560;2023-04-12T00:36:53;9.55;;;5.00;;
45326;SDS011;31062;49.678;24.560;2023-04-12T00:39:39;8.32;;;4.57;;
45326;SDS011;31062;49.678;24.560;2023-04-12T00:42:24;5.40;;;4.65;;
45326;SDS011;31062;49.678;24.560;2023-04-12T00:45:10;8.88;;;4.20;;
45326;SDS011;31062;49.678;24.560;2023-04-12T00:47:56;5.28;;;4.32;;
45326;SDS011;31062;49.678;24.560;2023-04-12T00:50:43;8.05;;;3.58;;
45326;SDS011;31062;49.678;24.560;2023-04-12T00:53:29;5.75;;;3.92;;
45326;SDS011;31062;49.678;24.560;2023-04-12T00:56:15;6.03;;;3.95;;
45326;SDS011;31062;49.678;24.560;2023-04-12T00:59:01;6.80;;;4.07;;
45326;SDS011;31062;49.678;24.560;2023-04-12T01:01:47;3.55;;;3.10;;
45326;SDS011;31062;49.678;24.560;2023-04-12T01:04:35;4.90;;;3.90;;
45326;SDS011;31062;49.678;24.560;2023-04-12T01:13:05;6.63;;;4.47;;
45326;SDS011;31062;49.678;24.560;2023-04-12T01:16:02;11.55;;;6.70;;
45326;SDS011;31062;49.678;24.560;2023-04-12T01:18:53;10.35;;;6.78;;
45326;SDS011;31062;49.678;24.560;2023-04-12T01:21:44;6.72;;;5.32;;
45326;SDS011;31062;49.678;24.560;2023-04-12T01:27:56;5.60;;;3.70;;
45326;SDS011;31062;49.678;24.560;2023-04-12T01:30:45;7.00;;;4.60;;
45326;SDS011;31062;49.678;24.560;2023-04-12T01:33:38;5.75;;;3.90;;
45326;SDS011;31062;49.678;24.560;2023-04-12T01:36:25;4.15;;;3.70;;
45326;SDS011;31062;49.678;24.560;2023-04-12T01:39:12;7.82;;;3.55;;
45326;SDS011;31062;49.678;24.560;2023-04-12T01:41:59;4.25;;;2.90;;
45326;SDS011;31062;49.678;24.560;2023-04-12T01:44:45;3.55;;;2.92;;
45326;SDS011;31062;49.678;24.560;2023-04-12T01:47:34;3.55;;;3.20;;
45326;SDS011;31062;49.678;24.560;2023-04-12T01:50:21;3.10;;;2.80;;
45326;SDS011;31062;49.678;24.560;2023-04-12T01:56:22;3.28;;;2.97;;
45326;SDS011;31062;49.678;24.560;2023-04-12T01:59:11;2.80;;;2.60;;
45326;SDS011;31062;49.678;24.560;2023-04-12T02:02:01;2.80;;;2.50;;
45326;SDS011;31062;49.678;24.560;2023-04-12T02:04:47;3.20;;;2.90;;
45326;SDS011;31062;49.678;24.560;2023-04-12T02:07:33;2.80;;;2.60;;
45326;SDS011;31062;49.678;24.560;2023-04-12T02:10:28;3.03;;;2.65;;
45326;SDS011;31062;49.678;24.560;2023-04-12T02:13:17;4.10;;;2.65;;
45326;SDS011;31062;49.678;24.560;2023-04-12T02:16:03;4.13;;;2.80;;
45326;SDS011;31062;49.678;24.560;2023-04-12T02:18:50;4.72;;;2.70;;
45326;SDS011;31062;49.678;24.560;2023-04-12T02:21:43;3.00;;;2.70;;
45326;SDS011;31062;49.678;24.560;2023-04-12T02:24:30;3.85;;;2.70;;
45326;SDS011;31062;49.678;24.560;2023-04-12T02:27:16;4.30;;;3.40;;
45326;SDS011;31062;49.678;24.560;2023-04-12T02:30:03;3.15;;;2.72;;
45326;SDS011;31062;49.678;24.560;2023-04-12T02:32:50;3.90;;;3.08;;
45326;SDS011;31062;49.678;24.560;2023-04-12T02:35:44;5.78;;;3.05;;
45326;SDS011;31062;49.678;24.560;2023-04-12T02:38:33;5.15;;;3.53;;
45326;SDS011;31062;49.678;24.560;2023-04-12T02:41:21;6.53;;;4.25;;
45326;SDS011;31062;49.678;24.560;2023-04-12T02:44:07;4.95;;;4.40;;
45326;SDS011;31062;49.678;24.560;2023-04-12T02:46:55;5.80;;;4.15;;
45326;SDS011;31062;49.678;24.560;2023-04-12T02:49:41;4.70;;;3.60;;
45326;SDS011;31062;49.678;24.560;2023-04-12T02:52:29;5.90;;;4.25;;
45326;SDS011;31062;49.678;24.560;2023-04-12T02:55:23;5.50;;;4.63;;
45326;SDS011;31062;49.678;24.560;2023-04-12T02:58:09;8.27;;;5.75;;
45326;SDS011;31062;49.678;24.560;2023-04-12T03:01:00;9.10;;;4.47;;
45326;SDS011;31062;49.678;24.560;2023-04-12T03:03:53;6.05;;;4.97;;
45326;SDS011;31062;49.678;24.560;2023-04-12T03:06:56;7.85;;;5.03;;
45326;SDS011;31062;49.678;24.560;2023-04-12T03:09:51;6.90;;;4.72;;
45326;SDS011;31062;49.678;24.560;2023-04-12T03:12:39;5.85;;;3.83;;
45326;SDS011;31062;49.678;24.560;2023-04-12T03:15:36;7.43;;;4.60;;
45326;SDS011;31062;49.678;24.560;2023-04-12T03:18:21;8.35;;;5.43;;
45326;SDS011;31062;49.678;24.560;2023-04-12T03:21:10;7.13;;;5.43;;
45326;SDS011;31062;49.678;24.560;2023-04-12T03:23:59;12.98;;;8.10;;
45326;SDS011;31062;49.678;24.560;2023-04-12T03:26:45;9.38;;;7.03;;
45326;SDS011;31062;49.678;24.560;2023-04-12T03:29:37;7.63;;;6.57;;
45326;SDS011;31062;49.678;24.560;2023-04-12T03:32:23;12.05;;;6.35;;
45326;SDS011;31062;49.678;24.560;2023-04-12T03:35:09;11.05;;;5.90;;
45326;SDS011;31062;49.678;24.560;2023-04-12T03:37:58;7.05;;;5.13;;
45326;SDS011;31062;49.678;24.560;2023-04-12T03:40:43;10.30;;;5.50;;
45326;SDS011;31062;49.678;24.560;2023-04-12T03:43:29;5.30;;;4.78;;
45326;SDS011;31062;49.678;24.560;2023-04-12T03:46:22;7.15;;;4.63;;
45326;SDS011;31062;49.678;24.560;2023-04-12T03:49:13;8.05;;;4.57;;
45326;SDS011;31062;49.678;24.560;2023-04-12T03:52:03;5.35;;;4.20;;
45326;SDS011;31062;49.678;24.560;2023-04-12T03:54:50;6.30;;;4.32;;
45326;SDS011;31062;49.678;24.560;2023-04-12T03:57:43;8.20;;;4.95;;
45326;SDS011;31062;49.678;24.560;2023-04-12T04:00:29;5.45;;;4.57;;
45326;SDS011;31062;49.678;24.560;2023-04-12T04:03:25;7.43;;;4.65;;
45326;SDS011;31062;49.678;24.560;2023-04-12T04:06:22;5.22;;;4.68;;
45326;SDS011;31062;49.678;24.560;2023-04-12T04:09:10;5.18;;;4.60;;
45326;SDS011;31062;49.678;24.560;2023-04-12T04:11:56;8.43;;;4.85;;
45326;SDS011;31062;49.678;24.560;2023-04-12T04:14:43;4.60;;;4.20;;
45326;SDS011;31062;49.678;24.560;2023-04-12T04:17:35;5.55;;;4.28;;
45326;SDS011;31062;49.678;24.560;2023-04-12T04:20:21;6.43;;;4.88;;
45326;SDS011;31062;49.678;24.560;2023-04-12T04:23:08;5.20;;;4.57;;
45326;SDS011;31062;49.678;24.560;2023-04-12T04:25:57;7.45;;;6.60;;
45326;SDS011;31062;49.678;24.560;2023-04-12T04:28:43;8.30;;;6.50;;
45326;SDS011;31062;49.678;24.560;2023-04-12T04:31:35;7.85;;;5.78;;
45326;SDS011;31062;49.678;24.560;2023-04-12T04:34:24;5.32;;;4.82;;
45326;SDS011;31062;49.678;24.560;2023-04-12T04:37:17;5.03;;;4.35;;
45326;SDS011;31062;49.678;24.560;2023-04-12T04:40:04;6.15;;;4.22;;
45326;SDS011;31062;49.678;24.560;2023-04-12T04:42:55;6.00;;;4.10;;
45326;SDS011;31062;49.678;24.560;2023-04-12T04:45:43;3.92;;;3.40;;
45326;SDS011;31062;49.678;24.560;2023-04-12T04:48:34;3.63;;;3.17;;
45326;SDS011;31062;49.678;24.560;2023-04-12T04:51:20;4.28;;;3.40;;
45326;SDS011;31062;49.678;24.560;2023-04-12T04:54:06;5.03;;;3.55;;
45326;SDS011;31062;49.678;24.560;2023-04-12T04:57:00;3.83;;;3.53;;
45326;SDS011;31062;49.678;24.560;2023-04-12T04:59:59;4.82;;;4.05;;
45326;SDS011;31062;49.678;24.560;2023-04-12T05:02:45;4.63;;;4.20;;
45326;SDS011;31062;49.678;24.560;2023-04-12T05:05:38;4.22;;;3.90;;
45326;SDS011;31062;49.678;24.560;2023-04-12T05:08:27;6.80;;;3.85;;
45326;SDS011;31062;49.678;24.560;2023-04-12T05:11:13;4.15;;;3.67;;
45326;SDS011;31062;49.678;24.560;2023-04-12T05:13:58;6.93;;;3.75;;
45326;SDS011;31062;49.678;24.560;2023-04-12T05:16:45;4.70;;;3.80;;
45326;SDS011;31062;49.678;24.560;2023-04-12T05:19:31;5.55;;;4.13;;
45326;SDS011;31062;49.678;24.560;2023-04-12T05:22:20;14.13;;;7.85;;
45326;SDS011;31062;49.678;24.560;2023-04-12T05:25:06;8.50;;;4.63;;
45326;SDS011;31062;49.678;24.560;2023-04-12T05:27:59;10.68;;;6.40;;
45326;SDS011;31062;49.678;24.560;2023-04-12T05:30:53;13.07;;;7.13;;
45326;SDS011;31062;49.678;24.560;2023-04-12T05:33:45;8.70;;;6.22;;
45326;SDS011;31062;49.678;24.560;2023-04-12T05:36:30;10.35;;;5.85;;
45326;SDS011;31062;49.678;24.560;2023-04-12T05:39:16;12.32;;;6.88;;
45326;SDS011;31062;49.678;24.560;2023-04-12T05:42:05;11.25;;;5.95;;
45326;SDS011;31062;49.678;24.560;2023-04-12T05:44:51;12.43;;;7.00;;
45326;SDS011;31062;49.678;24.560;2023-04-12T05:47:38;17.77;;;7.88;;
45326;SDS011;31062;49.678;24.560;2023-04-12T05:50:24;11.70;;;6.65;;
45326;SDS011;31062;49.678;24.560;2023-04-12T05:53:10;12.52;;;7.75;;
45326;SDS011;31062;49.678;24.560;2023-04-12T05:55:58;12.23;;;6.90;;
45326;SDS011;31062;49.678;24.560;2023-04-12T05:58:44;16.83;;;8.35;;
45326;SDS011;31062;49.678;24.560;2023-04-12T06:01:31;22.27;;;9.45;;
45326;SDS011;31062;49.678;24.560;2023-04-12T06:04:18;9.45;;;6.88;;
45326;SDS011;31062;49.678;24.560;2023-04-12T06:07:05;7.72;;;5.20;;
45326;SDS011;31062;49.678;24.560;2023-04-12T06:09:51;9.07;;;5.60;;
45326;SDS011;31062;49.678;24.560;2023-04-12T06:12:39;7.35;;;5.25;;
45326;SDS011;31062;49.678;24.560;2023-04-12T06:15:25;8.40;;;6.30;;
45326;SDS011;31062;49.678;24.560;2023-04-12T06:18:11;14.73;;;6.47;;
45326;SDS011;31062;49.678;24.560;2023-04-12T06:20:57;9.70;;;5.72;;
45326;SDS011;31062;49.678;24.560;2023-04-12T06:23:44;5.90;;;4.25;;
45326;SDS011;31062;49.678;24.560;2023-04-12T06:26:30;7.25;;;4.93;;
45326;SDS011;31062;49.678;24.560;2023-04-12T06:29:24;7.82;;;4.57;;
45326;SDS011;31062;49.678;24.560;2023-04-12T06:32:10;9.63;;;4.72;;
45326;SDS011;31062;49.678;24.560;2023-04-12T06:34:56;9.05;;;4.88;;
45326;SDS011;31062;49.678;24.560;2023-04-12T06:37:41;6.90;;;5.10;;
45326;SDS011;31062;49.678;24.560;2023-04-12T06:40:27;6.28;;;5.40;;
45326;SDS011;31062;49.678;24.560;2023-04-12T06:43:14;13.68;;;5.45;;
45326;SDS011;31062;49.678;24.560;2023-04-12T06:46:03;12.20;;;7.70;;
45326;SDS011;31062;49.678;24.560;2023-04-12T06:48:49;7.18;;;6.47;;
45326;SDS011;31062;49.678;24.560;2023-04-12T06:51:34;9.07;;;6.80;;
45326;SDS011;31062;49.678;24.560;2023-04-12T06:54:21;7.95;;;6.15;;
45326;SDS011;31062;49.678;24.560;2023-04-12T06:57:11;7.18;;;6.13;;
45326;SDS011;31062;49.678;24.560;2023-04-12T06:59:56;9.05;;;6.75;;
45326;SDS011;31062;49.678;24.560;2023-04-12T07:02:42;6.60;;;5.78;;
45326;SDS011;31062;49.678;24.560;2023-04-12T07:05:28;11.48;;;7.15;;
45326;SDS011;31062;49.678;24.560;2023-04-12T07:08:13;7.95;;;5.65;;
45326;SDS011;31062;49.678;24.560;2023-04-12T07:10:59;10.30;;;6.15;;
45326;SDS011;31062;49.678;24.560;2023-04-12T07:14:04;7.68;;;5.75;;
45326;SDS011;31062;49.678;24.560;2023-04-12T07:16:51;10.30;;;5.88;;
45326;SDS011;31062;49.678;24.560;2023-04-12T07:19:39;11.40;;;7.70;;
45326;SDS011;31062;49.678;24.560;2023-04-12T07:22:26;13.63;;;8.38;;
45326;SDS011;31062;49.678;24.560;2023-04-12T07:25:13;7.93;;;6.03;;
45326;SDS011;31062;49.678;24.560;2023-04-12T07:28:04;12.15;;;8.27;;
45326;SDS011;31062;49.678;24.560;2023-04-12T07:30:54;10.60;;;6.93;;
45326;SDS011;31062;49.678;24.560;2023-04-12T07:33:40;14.07;;;8.43;;
45326;SDS011;31062;49.678;24.560;2023-04-12T07:36:27;10.43;;;7.97;;
45326;SDS011;31062;49.678;24.560;2023-04-12T07:39:13;10.32;;;6.88;;
45326;SDS011;31062;49.678;24.560;2023-04-12T07:41:59;11.15;;;8.35;;
45326;SDS011;31062;49.678;24.560;2023-04-12T07:44:46;10.38;;;7.50;;
45326;SDS011;31062;49.678;24.560;2023-04-12T07:47:31;12.90;;;8.35;;
45326;SDS011;31062;49.678;24.560;2023-04-12T07:50:17;11.23;;;7.43;;
45326;SDS011;31062;49.678;24.560;2023-04-12T07:56:04;8.43;;;6.97;;
45326;SDS011;31062;49.678;24.560;2023-04-12T07:58:50;16.35;;;7.65;;
45326;SDS011;31062;49.678;24.560;2023-04-12T08:01:37;15.68;;;6.95;;
45326;SDS011;31062;49.678;24.560;2023-04-12T08:04:22;11.93;;;7.78;;
45326;SDS011;31062;49.678;24.560;2023-04-12T08:07:08;11.77;;;7.53;;
45326;SDS011;31062;49.678;24.560;2023-04-12T08:09:54;7.25;;;6.10;;
45326;SDS011;31062;49.678;24.560;2023-04-12T08:12:39;15.63;;;8.90;;
45326;SDS011;31062;49.678;24.560;2023-04-12T08:15:25;7.32;;;6.30;;
45326;SDS011;31062;49.678;24.560;2023-04-12T08:18:14;9.45;;;6.93;;
45326;SDS011;31062;49.678;24.560;2023-04-12T08:21:00;9.85;;;6.95;;
45326;SDS011;31062;49.678;24.560;2023-04-12T08:23:46;8.80;;;6.60;;
45326;SDS011;31062;49.678;24.560;2023-04-12T08:26:31;11.32;;;7.30;;
45326;SDS011;31062;49.678;24.560;2023-04-12T08:29:17;15.43;;;9.85;;
45326;SDS011;31062;49.678;24.560;2023-04-12T08:32:02;9.45;;;5.28;;
45326;SDS011;31062;49.678;24.560;2023-04-12T08:34:49;9.63;;;5.63;;
45326;SDS011;31062;49.678;24.560;2023-04-12T08:37:35;8.23;;;6.88;;
45326;SDS011;31062;49.678;24.560;2023-04-12T08:40:20;8.18;;;5.90;;
45326;SDS011;31062;49.678;24.560;2023-04-12T08:43:06;13.45;;;6.93;;
45326;SDS011;31062;49.678;24.560;2023-04-12T08:45:56;14.18;;;7.57;;
45326;SDS011;31062;49.678;24.560;2023-04-12T08:48:54;6.57;;;5.97;;
45326;SDS011;31062;49.678;24.560;2023-04-12T08:51:43;8.02;;;6.05;;
45326;SDS011;31062;49.678;24.560;2023-04-12T08:54:36;5.63;;;5.05;;
45326;SDS011;31062;49.678;24.560;2023-04-12T08:57:34;10.02;;;5.88;;
45326;SDS011;31062;49.678;24.560;2023-04-12T09:00:21;9.57;;;6.15;;
45326;SDS011;31062;49.678;24.560;2023-04-12T09:03:10;8.32;;;6.00;;
45326;SDS011;31062;49.678;24.560;2023-04-12T09:06:01;9.23;;;7.20;;
45326;SDS011;31062;49.678;24.560;2023-04-12T09:09:15;7.22;;;5.60;;
45326;SDS011;31062;49.678;24.560;2023-04-12T09:12:07;6.93;;;5.40;;
45326;SDS011;31062;49.678;24.560;2023-04-12T09:15:07;7.78;;;5.88;;
45326;SDS011;31062;49.678;24.560;2023-04-12T09:18:05;6.53;;;5.70;;
45326;SDS011;31062;49.678;24.560;2023-04-12T09:21:07;6.82;;;5.05;;
45326;SDS011;31062;49.678;24.560;2023-04-12T09:24:04;7.80;;;5.20;;
45326;SDS011;31062;49.678;24.560;2023-04-12T09:27:01;6.32;;;5.72;;
45326;SDS011;31062;49.678;24.560;2023-04-12T09:30:14;8.80;;;5.22;;
45326;SDS011;31062;49.678;24.560;2023-04-12T09:33:13;6.97;;;5.38;;
45326;SDS011;31062;49.678;24.560;2023-04-12T09:36:04;10.13;;;7.55;;
45326;SDS011;31062;49.678;24.560;2023-04-12T09:39:05;11.27;;;5.65;;
45326;SDS011;31062;49.678;24.560;2023-04-12T09:42:05;6.97;;;5.05;;
45326;SDS011;31062;49.678;24.560;2023-04-12T09:45:23;6.90;;;6.13;;
45326;SDS011;31062;49.678;24.560;2023-04-12T09:48:17;9.85;;;5.78;;
45326;SDS011;31062;49.678;24.560;2023-04-12T09:51:06;8.32;;;5.70;;
45326;SDS011;31062;49.678;24.560;2023-04-12T09:53:57;10.07;;;6.25;;
45326;SDS011;31062;49.678;24.560;2023-04-12T09:56:45;9.48;;;6.95;;
45326;SDS011;31062;49.678;24.560;2023-04-12T09:59:36;10.98;;;7.70;;
45326;SDS011;31062;49.678;24.560;2023-04-12T10:02:25;10.75;;;6.82;;
45326;SDS011;31062;49.678;24.560;2023-04-12T10:05:13;8.23;;;6.68;;
45326;SDS011;31062;49.678;24.560;2023-04-12T10:08:01;10.68;;;6.70;;
45326;SDS011;31062;49.678;24.560;2023-04-12T10:11:02;8.35;;;6.03;;
45326;SDS011;31062;49.678;24.560;2023-04-12T10:13:49;8.38;;;6.15;;
45326;SDS011;31062;49.678;24.560;2023-04-12T10:16:36;8.07;;;6.25;;
45326;SDS011;31062;49.678;24.560;2023-04-12T10:19:26;7.85;;;6.78;;
45326;SDS011;31062;49.678;24.560;2023-04-12T10:22:13;8.00;;;6.30;;
45326;SDS011;31062;49.678;24.560;2023-04-12T10:25:01;10.80;;;6.47;;
45326;SDS011;31062;49.678;24.560;2023-04-12T10:27:47;11.45;;;7.75;;
45326;SDS011;31062;49.678;24.560;2023-04-12T10:30:33;16.80;;;7.10;;
45326;SDS011;31062;49.678;24.560;2023-04-12T10:33:24;10.95;;;6.60;;
45326;SDS011;31062;49.678;24.560;2023-04-12T10:36:11;12.30;;;8.52;;
45326;SDS011;31062;49.678;24.560;2023-04-12T10:39:07;12.60;;;7.13;;
45326;SDS011;31062;49.678;24.560;2023-04-12T10:42:37;6.65;;;5.75;;
45326;SDS011;31062;49.678;24.560;2023-04-12T10:48:09;9.20;;;6.80;;
45326;SDS011;31062;49.678;24.560;2023-04-12T10:51:23;8.43;;;6.10;;
45326;SDS011;31062;49.678;24.560;2023-04-12T10:57:00;16.30;;;8.82;;
45326;SDS011;31062;49.678;24.560;2023-04-12T10:59:57;7.40;;;5.45;;
45326;SDS011;31062;49.678;24.560;2023-04-12T11:06:01;7.47;;;4.90;;
45326;SDS011;31062;49.678;24.560;2023-04-12T11:12:33;6.70;;;5.30;;
45326;SDS011;31062;49.678;24.560;2023-04-12T11:15:23;6.53;;;5.82;;
45326;SDS011;31062;49.678;24.560;2023-04-12T11:18:14;8.73;;;4.78;;
45326;SDS011;31062;49.678;24.560;2023-04-12T11:21:01;5.50;;;4.95;;
45326;SDS011;31062;49.678;24.560;2023-04-12T11:23:50;7.93;;;5.63;;
45326;SDS011;31062;49.678;24.560;2023-04-12T11:26:38;10.52;;;5.15;;
45326;SDS011;31062;49.678;24.560;2023-04-12T11:29:28;6.88;;;4.75;;
45326;SDS011;31062;49.678;24.560;2023-04-12T11:32:17;7.07;;;5.55;;
45326;SDS011;31062;49.678;24.560;2023-04-12T11:35:03;12.73;;;5.00;;
45326;SDS011;31062;49.678;24.560;2023-04-12T11:37:53;12.32;;;6.70;;
45326;SDS011;31062;49.678;24.560;2023-04-12T11:40:42;14.57;;;5.90;;
45326;SDS011;31062;49.678;24.560;2023-04-12T11:43:28;8.68;;;5.30;;
45326;SDS011;31062;49.678;24.560;2023-04-12T11:46:13;6.22;;;5.63;;
45326;SDS011;31062;49.678;24.560;2023-04-12T11:49:00;8.63;;;6.30;;
45326;SDS011;31062;49.678;24.560;2023-04-12T11:51:46;13.00;;;5.90;;
45326;SDS011;31062;49.678;24.560;2023-04-12T11:54:33;8.45;;;5.53;;
45326;SDS011;31062;49.678;24.560;2023-04-12T11:57:19;8.73;;;6.40;;
45326;SDS011;31062;49.678;24.560;2023-04-12T12:00:05;7.97;;;5.25;;
45326;SDS011;31062;49.678;24.560;2023-04-12T12:02:57;7.25;;;5.30;;
45326;SDS011;31062;49.678;24.560;2023-04-12T12:05:52;7.28;;;5.15;;
45326;SDS011;31062;49.678;24.560;2023-04-12T12:08:38;9.00;;;4.97;;
45326;SDS011;31062;49.678;24.560;2023-04-12T12:11:25;5.97;;;5.38;;
45326;SDS011;31062;49.678;24.560;2023-04-12T12:14:11;7.35;;;5.32;;
45326;SDS011;31062;49.678;24.560;2023-04-12T12:17:09;11.40;;;7.28;;
45326;SDS011;31062;49.678;24.560;2023-04-12T12:19:56;14.07;;;7.43;;
45326;SDS011;31062;49.678;24.560;2023-04-12T12:22:49;7.75;;;5.72;;
45326;SDS011;31062;49.678;24.560;2023-04-12T12:25:34;12.82;;;7.10;;
45326;SDS011;31062;49.678;24.560;2023-04-12T12:28:22;10.55;;;7.57;;
45326;SDS011;31062;49.678;24.560;2023-04-12T12:31:09;10.93;;;6.47;;
45326;SDS011;31062;49.678;24.560;2023-04-12T12:33:55;12.48;;;7.07;;
45326;SDS011;31062;49.678;24.560;2023-04-12T12:36:42;9.73;;;6.65;;
45326;SDS011;31062;49.678;24.560;2023-04-12T12:39:28;8.45;;;5.53;;
45326;SDS011;31062;49.678;24.560;2023-04-12T12:42:14;10.02;;;6.22;;
45326;SDS011;31062;49.678;24.560;2023-04-12T12:45:01;10.90;;;5.97;;
45326;SDS011;31062;49.678;24.560;2023-04-12T12:47:52;7.32;;;5.10;;
45326;SDS011;31062;49.678;24.560;2023-04-12T12:50:39;9.50;;;5.97;;
45326;SDS011;31062;49.678;24.560;2023-04-12T12:53:25;7.38;;;5.53;;
45326;SDS011;31062;49.678;24.560;2023-04-12T12:56:14;10.38;;;6.25;;
45326;SDS011;31062;49.678;24.560;2023-04-12T12:59:03;6.90;;;5.40;;
45326;SDS011;31062;49.678;24.560;2023-04-12T13:01:49;14.95;;;7.43;;
45326;SDS011;31062;49.678;24.560;2023-04-12T13:04:35;14.82;;;8.88;;
45326;SDS011;31062;49.678;24.560;2023-04-12T13:07:21;12.90;;;6.45;;
45326;SDS011;31062;49.678;24.560;2023-04-12T13:10:07;10.02;;;6.70;;
45326;SDS011;31062;49.678;24.560;2023-04-12T13:12:53;10.68;;;5.18;;
45326;SDS011;31062;49.678;24.560;2023-04-12T13:15:39;8.70;;;6.35;;
45326;SDS011;31062;49.678;24.560;2023-04-12T13:18:25;17.75;;;9.88;;
45326;SDS011;31062;49.678;24.560;2023-04-12T13:21:11;8.25;;;5.95;;
45326;SDS011;31062;49.678;24.560;2023-04-12T13:23:57;8.18;;;6.05;;
45326;SDS011;31062;49.678;24.560;2023-04-12T13:26:42;9.45;;;6.38;;
45326;SDS011;31062;49.678;24.560;2023-04-12T13:29:28;6.35;;;5.28;;
45326;SDS011;31062;49.678;24.560;2023-04-12T13:32:14;11.23;;;6.10;;
45326;SDS011;31062;49.678;24.560;2023-04-12T13:34:59;9.38;;;5.40;;
45326;SDS011;31062;49.678;24.560;2023-04-12T13:37:45;6.65;;;5.93;;
45326;SDS011;31062;49.678;24.560;2023-04-12T13:40:31;6.93;;;6.20;;
45326;SDS011;31062;49.678;24.560;2023-04-12T13:43:16;9.38;;;5.50;;
45326;SDS011;31062;49.678;24.560;2023-04-12T13:46:02;9.00;;;6.43;;
45326;SDS011;31062;49.678;24.560;2023-04-12T13:48:48;14.48;;;6.97;;
45326;SDS011;31062;49.678;24.560;2023-04-12T13:51:35;9.40;;;6.88;;
45326;SDS011;31062;49.678;24.560;2023-04-12T13:54:20;9.90;;;6.15;;
45326;SDS011;31062;49.678;24.560;2023-04-12T13:57:06;10.48;;;7.00;;
45326;SDS011;31062;49.678;24.560;2023-04-12T13:59:52;9.93;;;7.15;;
45326;SDS011;31062;49.678;24.560;2023-04-12T14:02:37;16.77;;;7.13;;
45326;SDS011;31062;49.678;24.560;2023-04-12T14:05:23;11.05;;;7.00;;
45326;SDS011;31062;49.678;24.560;2023-04-12T14:08:08;16.42;;;7.25;;
45326;SDS011;31062;49.678;24.560;2023-04-12T14:10:54;9.45;;;7.22;;
45326;SDS011;31062;49.678;24.560;2023-04-12T14:13:40;9.20;;;6.70;;
45326;SDS011;31062;49.678;24.560;2023-04-12T14:16:25;8.77;;;5.38;;
45326;SDS011;31062;49.678;24.560;2023-04-12T14:19:11;10.10;;;5.72;;
45326;SDS011;31062;49.678;24.560;2023-04-12T14:21:57;10.98;;;5.65;;
45326;SDS011;31062;49.678;24.560;2023-04-12T14:24:43;11.85;;;6.13;;
45326;SDS011;31062;49.678;24.560;2023-04-12T14:27:29;7.95;;;6.05;;
45326;SDS011;31062;49.678;24.560;2023-04-12T14:30:15;6.32;;;5.38;;
45326;SDS011;31062;49.678;24.560;2023-04-12T14:33:03;8.45;;;5.85;;
45326;SDS011;31062;49.678;24.560;2023-04-12T14:35:49;11.63;;;6.07;;
45326;SDS011;31062;49.678;24.560;2023-04-12T14:38:35;7.90;;;6.15;;
45326;SDS011;31062;49.678;24.560;2023-04-12T14:41:20;6.72;;;6.05;;
45326;SDS011;31062;49.678;24.560;2023-04-12T14:44:06;6.13;;;5.10;;
45326;SDS011;31062;49.678;24.560;2023-04-12T14:46:52;5.72;;;4.97;;
45326;SDS011;31062;49.678;24.560;2023-04-12T14:49:38;7.38;;;4.97;;
45326;SDS011;31062;49.678;24.560;2023-04-12T14:52:23;6.95;;;5.13;;
45326;SDS011;31062;49.678;24.560;2023-04-12T14:55:09;6.25;;;4.95;;
45326;SDS011;31062;49.678;24.560;2023-04-12T14:57:54;7.68;;;4.10;;
45326;SDS011;31062;49.678;24.560;2023-04-12T15:00:40;4.85;;;4.30;;
45326;SDS011;31062;49.678;24.560;2023-04-12T15:03:26;4.63;;;4.13;;
45326;SDS011;31062;49.678;24.560;2023-04-12T15:06:14;11.38;;;5.15;;
45326;SDS011;31062;49.678;24.560;2023-04-12T15:09:00;26.40;;;12.55;;
45326;SDS011;31062;49.678;24.560;2023-04-12T15:11:51;8.82;;;5.00;;
45326;SDS011;31062;49.678;24.560;2023-04-12T15:14:45;13.43;;;7.30;;
45326;SDS011;31062;49.678;24.560;2023-04-12T15:17:31;10.32;;;6.22;;
45326;SDS011;31062;49.678;24.560;2023-04-12T15:20:18;5.95;;;3.97;;
45326;SDS011;31062;49.678;24.560;2023-04-12T15:23:04;13.65;;;6.57;;
45326;SDS011;31062;49.678;24.560;2023-04-12T15:25:57;7.90;;;4.50;;
45326;SDS011;31062;49.678;24.560;2023-04-12T15:28:46;13.10;;;4.95;;
45326;SDS011;31062;49.678;24.560;2023-04-12T15:31:31;7.50;;;5.80;;
45326;SDS011;31062;49.678;24.560;2023-04-12T15:34:18;15.85;;;8.25;;
45326;SDS011;31062;49.678;24.560;2023-04-12T15:37:04;23.38;;;13.60;;
45326;SDS011;31062;49.678;24.560;2023-04-12T15:39:49;33.35;;;17.13;;
45326;SDS011;31062;49.678;24.560;2023-04-12T15:42:35;28.02;;;13.23;;
45326;SDS011;31062;49.678;24.560;2023-04-12T15:45:21;20.15;;;11.93;;
45326;SDS011;31062;49.678;24.560;2023-04-12T15:48:06;14.57;;;10.32;;
45326;SDS011;31062;49.678;24.560;2023-04-12T15:50:53;20.85;;;12.00;;
45326;SDS011;31062;49.678;24.560;2023-04-12T15:53:40;17.77;;;9.30;;
45326;SDS011;31062;49.678;24.560;2023-04-12T15:56:27;20.63;;;9.65;;
45326;SDS011;31062;49.678;24.560;2023-04-12T15:59:14;11.75;;;8.95;;
45326;SDS011;31062;49.678;24.560;2023-04-12T16:02:03;15.55;;;9.82;;
45326;SDS011;31062;49.678;24.560;2023-04-12T16:04:54;16.23;;;10.32;;
45326;SDS011;31062;49.678;24.560;2023-04-12T16:07:40;19.42;;;11.90;;
45326;SDS011;31062;49.678;24.560;2023-04-12T16:10:25;14.40;;;10.70;;
45326;SDS011;31062;49.678;24.560;2023-04-12T16:13:12;18.77;;;11.48;;
45326;SDS011;31062;49.678;24.560;2023-04-12T16:15:57;14.65;;;10.57;;
45326;SDS011;31062;49.678;24.560;2023-04-12T16:18:43;19.55;;;12.18;;
45326;SDS011;31062;49.678;24.560;2023-04-12T16:21:30;19.27;;;11.25;;
45326;SDS011;31062;49.678;24.560;2023-04-12T16:24:15;16.98;;;11.88;;
45326;SDS011;31062;49.678;24.560;2023-04-12T16:27:01;19.95;;;11.68;;
45326;SDS011;31062;49.678;24.560;2023-04-12T16:29:47;21.85;;;11.98;;
45326;SDS011;31062;49.678;24.560;2023-04-12T16:32:32;21.58;;;11.98;;
45326;SDS011;31062;49.678;24.560;2023-04-12T16:35:20;24.83;;;12.18;;
45326;SDS011;31062;49.678;24.560;2023-04-12T16:38:06;20.05;;;12.55;;
45326;SDS011;31062;49.678;24.560;2023-04-12T16:40:52;22.40;;;13.50;;
45326;SDS011;31062;49.678;24.560;2023-04-12T16:43:38;19.30;;;13.07;;
45326;SDS011;31062;49.678;24.560;2023-04-12T16:46:23;19.63;;;11.77;;
45326;SDS011;31062;49.678;24.560;2023-04-12T16:49:09;22.92;;;13.38;;
45326;SDS011;31062;49.678;24.560;2023-04-12T16:51:56;19.02;;;13.45;;
45326;SDS011;31062;49.678;24.560;2023-04-12T16:54:43;28.27;;;13.55;;
45326;SDS011;31062;49.678;24.560;2023-04-12T16:57:29;17.55;;;12.15;;
45326;SDS011;31062;49.678;24.560;2023-04-12T17:00:14;20.27;;;13.10;;